Terminal Aerodrome Forecast
Issued by NWS

Home | Current Version | Previous Version | Text Only | Print | Product List | Glossary On
Versions: 1 2 3 4 5 6 7 8 9 10 11 12 13 14 15 16 17 18
000
FTUS43 KFGF 070400 AAA
TAFDVL
TAF AMD
KDVL 070412Z 0704/0724 14010KT P6SM -RA OVC050
      TEMPO 0704/0708 3SM -SHRA BR BKN005
     FM071200 31018G28KT P6SM -SHRA OVC020
      AMD LTD TO CLD VIS AND WIND=

USA.gov is the U.S. government's official web portal to all federal, state and local government web resources and services.